createdAt,value
2022-11-12T00:00:07.026Z,8.82
2022-11-12T00:05:10.377Z,8.25
2022-11-12T00:10:12.593Z,9.10
2022-11-12T00:15:15.122Z,8.90
2022-11-12T00:20:17.513Z,10.80
2022-11-12T00:25:19.877Z,10.80
2022-11-12T00:30:22.028Z,9.07
2022-11-12T00:35:24.272Z,9.30
2022-11-12T00:40:26.973Z,9.00
2022-11-12T00:45:29.212Z,7.88
2022-11-12T00:50:31.382Z,7.82
2022-11-12T00:55:33.706Z,7.93
2022-11-12T01:00:35.974Z,8.02
2022-11-12T01:05:38.210Z,7.47
2022-11-12T01:10:40.543Z,7.68
2022-11-12T01:15:43.580Z,8.20
2022-11-12T01:20:45.967Z,7.47
2022-11-12T01:25:48.380Z,7.85
2022-11-12T01:30:50.745Z,7.13
2022-11-12T01:35:52.923Z,7.90
2022-11-12T01:40:55.109Z,7.90
2022-11-12T01:45:57.995Z,7.93
2022-11-12T01:51:00.854Z,7.03
2022-11-12T01:56:05.957Z,7.82
2022-11-12T02:01:08.345Z,8.15
2022-11-12T02:06:14.700Z,7.97
2022-11-12T02:11:21.725Z,9.07
2022-11-12T02:16:29.629Z,8.07
2022-11-12T02:21:32.469Z,7.88
2022-11-12T02:26:37.716Z,7.93
2022-11-12T02:31:39.965Z,9.27
2022-11-12T02:36:42.297Z,8.80
2022-11-12T02:41:44.459Z,7.75
2022-11-12T02:46:46.642Z,8.02
2022-11-12T02:51:48.953Z,8.57
2022-11-12T02:56:51.140Z,8.52
2022-11-12T03:01:53.527Z,7.43
2022-11-12T03:06:55.736Z,6.18
2022-11-12T03:11:58.024Z,5.82
2022-11-12T03:17:00.344Z,5.03
2022-11-12T03:22:02.781Z,3.28
2022-11-12T03:27:04.976Z,2.30
2022-11-12T03:32:07.331Z,2.17
2022-11-12T03:37:09.977Z,1.73
2022-11-12T03:42:12.300Z,2.45
2022-11-12T03:47:14.509Z,3.13
2022-11-12T03:52:16.701Z,3.65
2022-11-12T03:57:19.029Z,2.90
2022-11-12T04:02:21.263Z,3.00
2022-11-12T04:07:41.788Z,2.85
2022-11-12T04:13:02.333Z,2.92
2022-11-12T04:18:23.102Z,2.47
2022-11-12T04:23:25.373Z,2.20
2022-11-12T04:28:27.870Z,1.90
2022-11-12T04:33:30.241Z,1.85
2022-11-12T04:38:32.421Z,2.17
2022-11-12T04:43:52.873Z,2.33
2022-11-12T04:48:55.024Z,2.08
2022-11-12T04:53:57.205Z,2.30
2022-11-12T04:58:59.551Z,2.03
2022-11-12T05:04:01.890Z,2.00
2022-11-12T05:09:04.172Z,2.58
2022-11-12T05:14:06.503Z,3.03
2022-11-12T05:37:22.533Z,2.63
2022-11-12T05:42:24.716Z,3.92
2022-11-12T05:47:27.039Z,5.82
2022-11-12T05:52:29.443Z,7.20
2022-11-12T05:57:31.634Z,7.90
2022-11-12T06:02:33.865Z,8.48
2022-11-12T06:07:36.086Z,8.43
2022-11-12T06:12:38.392Z,10.02
2022-11-12T06:17:40.581Z,9.65
2022-11-12T06:22:42.931Z,10.65
2022-11-12T06:27:45.257Z,9.07
2022-11-12T06:32:50.970Z,10.80
2022-11-12T06:37:53.364Z,13.57
2022-11-12T06:42:59.606Z,10.68
2022-11-12T06:48:01.836Z,19.33
2022-11-12T06:53:04.276Z,16.90
2022-11-12T06:58:06.544Z,14.18
2022-11-12T07:03:10.027Z,13.88
2022-11-12T07:08:12.234Z,14.32
2022-11-12T07:13:14.664Z,12.80
2022-11-12T07:18:17.011Z,14.07
2022-11-12T07:23:19.411Z,12.95
2022-11-12T07:28:21.777Z,15.02
2022-11-12T07:33:24.568Z,13.75
2022-11-12T07:38:28.128Z,13.38
2022-11-12T07:43:32.678Z,16.08
2022-11-12T07:48:35.337Z,14.93
2022-11-12T07:53:37.895Z,15.45
2022-11-12T07:58:40.718Z,14.68
2022-11-12T08:03:42.926Z,14.45
2022-11-12T08:08:45.653Z,14.25
2022-11-12T08:13:48.608Z,14.20
2022-11-12T08:18:50.991Z,12.85
2022-11-12T08:23:53.399Z,13.05
2022-11-12T08:28:55.612Z,13.05
2022-11-12T08:33:57.837Z,12.85
2022-11-12T08:39:00.170Z,12.68
2022-11-12T08:44:08.150Z,12.75
2022-11-12T08:49:10.747Z,13.02
2022-11-12T08:54:12.939Z,11.18
2022-11-12T08:59:15.185Z,12.40
2022-11-12T09:04:18.682Z,11.18
2022-11-12T09:09:21.094Z,9.70
2022-11-12T09:14:23.322Z,8.82
2022-11-12T09:19:25.539Z,7.30
2022-11-12T09:24:27.934Z,4.72
2022-11-12T09:29:30.145Z,3.95
2022-11-12T09:34:32.506Z,2.80
2022-11-12T09:39:34.687Z,3.22
2022-11-12T09:44:39.775Z,3.47
2022-11-12T09:49:50.578Z,4.35
2022-11-12T09:55:00.796Z,3.55
2022-11-12T10:00:04.015Z,4.05
2022-11-12T10:05:27.890Z,4.15
2022-11-12T10:10:49.490Z,4.15
2022-11-12T10:16:29.201Z,5.28
2022-11-12T10:21:36.627Z,5.60
2022-11-12T10:26:40.781Z,6.00
2022-11-12T10:31:43.117Z,6.97
2022-11-12T10:37:02.136Z,6.53
2022-11-12T10:42:13.369Z,4.05
2022-11-12T10:47:18.435Z,3.30
2022-11-12T10:52:25.361Z,2.90
2022-11-12T10:57:28.084Z,14.25
2022-11-12T11:02:30.504Z,4.72
2022-11-12T11:07:32.731Z,3.53
2022-11-12T11:12:35.351Z,7.07
2022-11-12T11:17:37.659Z,3.30
2022-11-12T11:22:44.906Z,5.03
2022-11-12T11:28:14.077Z,4.90
2022-11-12T11:33:25.078Z,4.72
2022-11-12T11:38:42.233Z,5.63
2022-11-12T11:43:50.478Z,7.13
2022-11-12T11:49:11.219Z,19.33
2022-11-12T11:54:44.906Z,10.88
2022-11-12T12:00:16.463Z,6.78
2022-11-12T12:05:46.656Z,5.55
2022-11-12T12:11:07.354Z,6.53
2022-11-12T12:16:23.871Z,6.90
2022-11-12T12:21:32.504Z,3.55
2022-11-12T12:26:48.607Z,4.88
2022-11-12T12:32:23.106Z,3.88
2022-11-12T12:37:57.786Z,2.65
2022-11-12T12:43:23.716Z,2.83
2022-11-12T12:48:31.586Z,4.60
2022-11-12T12:53:36.139Z,4.97
2022-11-12T12:58:41.086Z,7.10
2022-11-12T13:03:43.435Z,7.63
2022-11-12T13:08:45.850Z,5.78
2022-11-12T13:13:48.150Z,5.05
2022-11-12T13:18:53.034Z,8.15
2022-11-12T13:24:10.833Z,7.45
2022-11-12T13:29:24.982Z,7.10
2022-11-12T13:34:34.121Z,5.20
2022-11-12T13:39:36.874Z,5.23
2022-11-12T13:44:39.251Z,6.35
2022-11-12T13:49:43.649Z,4.88
2022-11-12T13:54:45.986Z,4.25
2022-11-12T13:59:48.306Z,4.00
2022-11-12T14:04:51.968Z,3.67
2022-11-12T14:10:19.879Z,4.10
2022-11-12T14:15:51.329Z,5.38
2022-11-12T14:20:53.700Z,4.97
2022-11-12T14:25:57.668Z,4.50
2022-11-12T14:31:02.092Z,5.70
2022-11-12T14:36:07.618Z,5.90
2022-11-12T14:41:16.053Z,3.33
2022-11-12T14:46:27.555Z,3.15
2022-11-12T14:51:32.502Z,3.25
2022-11-12T14:56:42.627Z,3.50
2022-11-12T15:02:29.499Z,3.22
2022-11-12T15:07:40.371Z,4.05
2022-11-12T15:12:42.984Z,3.97
2022-11-12T15:17:45.443Z,6.60
2022-11-12T15:22:54.301Z,6.78
2022-11-12T15:27:57.219Z,5.72
2022-11-12T15:33:14.453Z,5.35
2022-11-12T15:38:33.310Z,8.90
2022-11-12T15:43:37.224Z,9.40
2022-11-12T15:48:39.412Z,6.18
2022-11-12T15:53:41.649Z,11.90
2022-11-12T15:58:44.006Z,10.05
2022-11-12T16:03:46.586Z,10.30
2022-11-12T16:08:48.922Z,6.25
2022-11-12T16:13:51.221Z,6.53
2022-11-12T16:18:53.546Z,6.93
2022-11-12T16:23:55.839Z,7.90
2022-11-12T16:28:58.221Z,7.15
2022-11-12T16:34:00.554Z,7.53
2022-11-12T16:39:02.935Z,7.35
2022-11-12T16:44:05.281Z,9.27
2022-11-12T16:49:12.769Z,10.88
2022-11-12T16:54:14.961Z,10.95
2022-11-12T16:59:17.336Z,9.57
2022-11-12T17:04:19.835Z,11.13
2022-11-12T17:09:22.207Z,14.82
2022-11-12T17:14:28.313Z,13.68
2022-11-12T17:19:30.939Z,11.70
2022-11-12T17:24:33.314Z,10.40
2022-11-12T17:29:35.637Z,13.82
2022-11-12T17:34:39.914Z,12.38
2022-11-12T17:39:42.146Z,12.43
2022-11-12T17:44:46.533Z,15.02
2022-11-12T17:49:48.899Z,15.63
2022-11-12T17:54:51.265Z,11.93
2022-11-12T17:59:53.498Z,15.05
2022-11-12T18:04:55.743Z,11.48
2022-11-12T18:09:58.034Z,9.23
2022-11-12T18:15:00.302Z,7.65
2022-11-12T18:20:03.150Z,6.97
2022-11-12T18:25:05.963Z,8.45
2022-11-12T18:30:08.731Z,8.70
2022-11-12T18:35:11.220Z,14.40
2022-11-12T18:40:13.647Z,16.67
2022-11-12T18:45:16.092Z,38.28
2022-11-12T18:50:18.793Z,9.15
2022-11-12T18:55:21.643Z,7.93
2022-11-12T19:00:23.854Z,10.85
2022-11-12T19:05:26.401Z,11.50
2022-11-12T19:10:28.624Z,12.48
2022-11-12T19:15:34.376Z,17.73
2022-11-12T19:20:36.716Z,14.95
2022-11-12T19:25:39.149Z,15.52
2022-11-12T19:30:41.756Z,10.80
2022-11-12T19:35:44.363Z,13.60
2022-11-12T19:40:46.759Z,13.68
2022-11-12T19:45:49.080Z,12.77
2022-11-12T19:50:51.551Z,19.27
2022-11-12T19:55:54.110Z,25.50
2022-11-12T20:01:04.505Z,24.70
2022-11-12T20:06:09.965Z,21.48
2022-11-12T20:11:12.862Z,18.63
2022-11-12T20:16:20.970Z,12.18
2022-11-12T20:21:28.232Z,11.98
2022-11-12T20:26:30.538Z,10.23
2022-11-12T20:31:33.858Z,10.93
2022-11-12T20:36:36.308Z,11.63
2022-11-12T20:41:38.641Z,10.80
2022-11-12T20:46:41.048Z,10.80
2022-11-12T20:51:43.516Z,9.57
2022-11-12T20:56:46.405Z,9.20
2022-11-12T21:01:48.855Z,9.13
2022-11-12T21:06:51.360Z,8.63
2022-11-12T21:11:53.896Z,9.20
2022-11-12T21:16:56.264Z,9.38
2022-11-12T21:21:58.609Z,9.93
2022-11-12T21:27:01.253Z,7.57
2022-11-12T21:32:04.173Z,9.55
2022-11-12T21:37:06.451Z,10.63
2022-11-12T21:42:08.797Z,9.77
2022-11-12T21:47:11.292Z,10.52
2022-11-12T21:52:13.542Z,9.10
2022-11-12T21:57:18.716Z,9.88
2022-11-12T22:02:21.288Z,9.73
2022-11-12T22:07:23.607Z,11.35
2022-11-12T22:12:25.902Z,13.27
2022-11-12T22:17:28.261Z,15.52
2022-11-12T22:22:30.431Z,12.57
2022-11-12T22:27:34.193Z,9.10
2022-11-12T22:32:36.378Z,7.80
2022-11-12T22:37:38.574Z,7.97
2022-11-12T22:42:40.742Z,7.75
2022-11-12T22:47:42.917Z,8.27
2022-11-12T22:52:50.006Z,9.13
2022-11-12T22:57:52.458Z,9.65
2022-11-12T23:02:54.705Z,10.85
2022-11-12T23:07:56.910Z,9.90
2022-11-12T23:12:59.099Z,9.43
2022-11-12T23:18:01.272Z,9.88
2022-11-12T23:23:03.544Z,9.77
2022-11-12T23:28:08.244Z,9.35
2022-11-12T23:33:10.746Z,10.98
2022-11-12T23:38:13.142Z,13.07
2022-11-12T23:43:15.463Z,10.75
2022-11-12T23:48:18.668Z,11.27
2022-11-12T23:53:20.991Z,10.45
2022-11-12T23:58:23.311Z,10.50
